Time,TemperatureF,DewpointF,PressureIn,WindDirection,WindDirectionDegrees,WindSpeedMPH,WindSpeedGustMPH,Humidity,HourlyPrecipIn,Conditions,Clouds,dailyrainin,SoftwareType,DateUTC
2013-03-04 00:05:00,41.4,34.0,29.99,SSW,198,0.0,-999.0,76,-99.99,,,0.00,weatherlink.com 1.10,2013-03-04 00:05:00,
2013-03-04 00:20:00,41.4,34.0,29.99,SSW,197,0.0,-999.0,76,-99.99,,,0.00,weatherlink.com 1.10,2013-03-04 00:20:00,
2013-03-04 00:35:00,41.2,35.0,29.98,SSE,160,0.0,-999.0,77,-99.99,,,0.00,weatherlink.com 1.10,2013-03-04 00:35:00,
2013-03-04 00:50:00,41.0,34.0,29.98,SSE,167,0.0,-999.0,77,-99.99,,,0.00,weatherlink.com 1.10,2013-03-04 00:50:00,
2013-03-04 01:05:00,41.1,34.0,29.98,South,180,0.0,-999.0,77,-99.99,,,0.00,weatherlink.com 1.10,2013-03-04 01:05:00,
2013-03-04 01:20:00,41.1,34.0,29.98,SSW,207,0.0,-999.0,77,-99.99,,,0.00,weatherlink.com 1.10,2013-03-04 01:20:00,
2013-03-04 01:35:00,41.1,34.0,29.97,South,179,0.0,-999.0,77,-99.99,,,0.00,weatherlink.com 1.10,2013-03-04 01:35:00,
2013-03-04 01:50:00,41.1,34.0,29.97,SW,215,0.0,-999.0,77,-99.99,,,0.00,weatherlink.com 1.10,2013-03-04 01:50:00,
2013-03-04 02:05:00,41.1,34.0,29.96,South,189,0.0,-999.0,77,-99.99,,,0.00,weatherlink.com 1.10,2013-03-04 02:05:00,
2013-03-04 02:20:00,41.1,34.0,29.95,South,173,0.0,-999.0,77,-99.99,,,0.00,weatherlink.com 1.10,2013-03-04 02:20:00,
2013-03-04 02:35:00,41.2,35.0,29.94,ESE,123,0.0,-999.0,77,-99.99,,,0.00,weatherlink.com 1.10,2013-03-04 02:35:00,
2013-03-04 02:50:00,41.3,35.0,29.94,SE,142,0.0,-999.0,78,-99.99,,,0.00,weatherlink.com 1.10,2013-03-04 02:50:00,
2013-03-04 03:05:00,41.4,35.0,29.93,SE,141,0.0,-999.0,78,-99.99,,,0.00,weatherlink.com 1.10,2013-03-04 03:05:00,
2013-03-04 03:20:00,41.4,34.0,29.93,South,188,0.0,-999.0,76,-99.99,,,0.00,weatherlink.com 1.10,2013-03-04 03:20:00,
2013-03-04 03:35:00,41.5,35.0,29.93,SSE,163,0.0,-999.0,77,-99.99,,,0.00,weatherlink.com 1.10,2013-03-04 03:35:00,
2013-03-04 03:50:00,41.5,35.0,29.92,SSE,160,0.0,-999.0,78,-99.99,,,0.00,weatherlink.com 1.10,2013-03-04 03:50:00,
2013-03-04 04:06:00,41.5,35.0,29.91,SSE,157,0.0,-999.0,79,-99.99,,,0.00,weatherlink.com 1.10,2013-03-04 04:06:00,
2013-03-04 04:21:00,41.4,36.0,29.91,SSE,156,0.0,-999.0,80,-99.99,,,0.00,weatherlink.com 1.10,2013-03-04 04:21:00,
2013-03-04 04:36:00,41.4,36.0,29.91,SSE,156,0.0,-999.0,80,-99.99,,,0.00,weatherlink.com 1.10,2013-03-04 04:36:00,
2013-03-04 04:51:00,41.5,36.0,29.91,SSE,156,0.0,-999.0,80,-99.99,,,0.00,weatherlink.com 1.10,2013-03-04 04:51:00,
2013-03-04 05:06:00,41.5,36.0,29.90,SSE,156,0.0,-999.0,80,-99.99,,,0.00,weatherlink.com 1.10,2013-03-04 05:06:00,
2013-03-04 05:21:00,41.5,36.0,29.89,SSE,156,0.0,-999.0,80,-99.99,,,0.00,weatherlink.com 1.10,2013-03-04 05:21:00,
2013-03-04 05:36:00,41.6,36.0,29.89,SSE,156,0.0,-999.0,80,-99.99,,,0.00,weatherlink.com 1.10,2013-03-04 05:36:00,
2013-03-04 05:51:00,41.7,36.0,29.89,SSE,156,0.0,-999.0,80,-99.99,,,0.00,weatherlink.com 1.10,2013-03-04 05:51:00,
2013-03-04 06:06:00,41.8,36.0,29.89,SSE,159,0.0,-999.0,80,-99.99,,,0.00,weatherlink.com 1.10,2013-03-04 06:06:00,
2013-03-04 06:21:00,41.9,36.0,29.88,SE,142,0.0,-999.0,80,-99.99,,,0.00,weatherlink.com 1.10,2013-03-04 06:21:00,
2013-03-04 06:36:00,42.1,36.0,29.88,South,183,0.0,-999.0,79,-99.99,,,0.00,weatherlink.com 1.10,2013-03-04 06:36:00,
2013-03-04 06:51:00,42.0,36.0,29.88,SE,145,0.0,-999.0,79,-99.99,,,0.00,weatherlink.com 1.10,2013-03-04 06:51:00,
2013-03-04 07:06:00,42.0,36.0,29.87,ESE,118,0.0,-999.0,78,-99.99,,,0.00,weatherlink.com 1.10,2013-03-04 07:06:00,
2013-03-04 07:21:00,41.8,35.0,29.87,SSE,150,0.0,-999.0,78,-99.99,,,0.00,weatherlink.com 1.10,2013-03-04 07:21:00,
2013-03-04 07:36:00,-999.0,-99.9,29.87,North,-999,-999.0,-999.0,-999,-99.99,,,0.00,weatherlink.com 1.10,2013-03-04 07:36:00,
2013-03-04 07:51:00,-999.0,-99.9,29.86,North,-999,-999.0,-999.0,-999,-99.99,,,0.00,weatherlink.com 1.10,2013-03-04 07:51:00,
2013-03-04 08:06:00,-999.0,-99.9,29.86,North,-999,-999.0,-999.0,-999,-99.99,,,0.00,weatherlink.com 1.10,2013-03-04 08:06:00,
2013-03-04 08:21:00,-999.0,-99.9,29.86,North,-999,-999.0,-999.0,-999,-99.99,,,0.00,weatherlink.com 1.10,2013-03-04 08:21:00,
2013-03-04 08:36:00,-999.0,-99.9,29.86,North,-999,-999.0,-999.0,-999,-99.99,,,0.00,weatherlink.com 1.10,2013-03-04 08:36:00,
2013-03-04 08:51:00,-999.0,-99.9,29.86,North,-999,-999.0,-999.0,-999,-99.99,,,0.00,weatherlink.com 1.10,2013-03-04 08:51:00,
2013-03-04 09:06:00,-999.0,-99.9,29.86,North,-999,-999.0,-999.0,-999,-99.99,,,0.00,weatherlink.com 1.10,2013-03-04 09:06:00,
2013-03-04 09:21:00,-999.0,-99.9,29.86,North,-999,-999.0,-999.0,-999,-99.99,,,0.00,weatherlink.com 1.10,2013-03-04 09:21:00,
2013-03-04 09:36:00,-999.0,-99.9,29.86,North,-999,-999.0,-999.0,-999,-99.99,,,0.00,weatherlink.com 1.10,2013-03-04 09:36:00,
2013-03-04 09:52:00,-999.0,-99.9,29.85,North,-999,-999.0,-999.0,-999,-99.99,,,0.00,weatherlink.com 1.10,2013-03-04 09:52:00,
2013-03-04 10:07:00,-999.0,-99.9,29.84,North,-999,-999.0,-999.0,-999,-99.99,,,0.00,weatherlink.com 1.10,2013-03-04 10:07:00,
2013-03-04 10:22:00,-999.0,-99.9,29.84,North,-999,-999.0,-999.0,-999,-99.99,,,0.00,weatherlink.com 1.10,2013-03-04 10:22:00,
2013-03-04 10:37:00,-999.0,-99.9,29.83,North,-999,-999.0,-999.0,-999,-99.99,,,0.00,weatherlink.com 1.10,2013-03-04 10:37:00,
2013-03-04 10:52:00,-999.0,-99.9,29.84,North,-999,-999.0,-999.0,-999,-99.99,,,0.00,weatherlink.com 1.10,2013-03-04 10:52:00,
2013-03-04 11:07:00,-999.0,-99.9,29.83,North,-999,-999.0,-999.0,-999,-99.99,,,0.00,weatherlink.com 1.10,2013-03-04 11:07:00,
2013-03-04 11:22:00,-999.0,-99.9,29.82,North,-999,-999.0,-999.0,-999,-99.99,,,0.00,weatherlink.com 1.10,2013-03-04 11:22:00,
2013-03-04 11:37:00,-999.0,-99.9,29.82,North,-999,-999.0,-999.0,-999,-99.99,,,0.00,weatherlink.com 1.10,2013-03-04 11:37:00,
2013-03-04 11:52:00,-999.0,-99.9,29.82,North,-999,-999.0,-999.0,-999,-99.99,,,0.00,weatherlink.com 1.10,2013-03-04 11:52:00,
2013-03-04 12:07:00,-999.0,-99.9,29.80,North,-999,-999.0,-999.0,-999,-99.99,,,0.00,weatherlink.com 1.10,2013-03-04 12:07:00,
2013-03-04 12:22:00,-999.0,-99.9,29.81,North,-999,-999.0,-999.0,-999,-99.99,,,0.00,weatherlink.com 1.10,2013-03-04 12:22:00,
2013-03-04 12:37:00,-999.0,-99.9,29.80,North,-999,-999.0,-999.0,-999,-99.99,,,0.00,weatherlink.com 1.10,2013-03-04 12:37:00,
2013-03-04 12:52:00,-999.0,-99.9,29.79,North,-999,-999.0,-999.0,-999,-99.99,,,0.00,weatherlink.com 1.10,2013-03-04 12:52:00,
2013-03-04 13:07:00,-999.0,-99.9,29.78,North,-999,-999.0,-999.0,-999,-99.99,,,0.00,weatherlink.com 1.10,2013-03-04 13:07:00,
2013-03-04 13:23:00,-999.0,-99.9,29.78,North,-999,-999.0,-999.0,-999,-99.99,,,0.00,weatherlink.com 1.10,2013-03-04 13:23:00,
2013-03-04 13:38:00,-999.0,-99.9,29.77,North,-999,-999.0,-999.0,-999,-99.99,,,0.00,weatherlink.com 1.10,2013-03-04 13:38:00,
2013-03-04 13:53:00,-999.0,-99.9,29.77,North,-999,-999.0,-999.0,-999,-99.99,,,0.00,weatherlink.com 1.10,2013-03-04 13:53:00,
2013-03-04 14:08:00,-999.0,-99.9,29.76,North,-999,-999.0,-999.0,-999,-99.99,,,0.00,weatherlink.com 1.10,2013-03-04 14:08:00,
2013-03-04 14:23:00,-999.0,-99.9,29.76,North,-999,-999.0,-999.0,-999,-99.99,,,0.00,weatherlink.com 1.10,2013-03-04 14:23:00,
2013-03-04 14:38:00,-999.0,-99.9,29.76,North,-999,-999.0,-999.0,-999,-99.99,,,0.00,weatherlink.com 1.10,2013-03-04 14:38:00,
2013-03-04 14:53:00,-999.0,-99.9,29.75,North,-999,-999.0,-999.0,-999,-99.99,,,0.00,weatherlink.com 1.10,2013-03-04 14:53:00,
2013-03-04 15:08:00,-999.0,-99.9,29.74,North,-999,-999.0,-999.0,-999,-99.99,,,0.00,weatherlink.com 1.10,2013-03-04 15:08:00,
2013-03-04 15:23:00,-999.0,-99.9,29.74,North,-999,-999.0,-999.0,-999,-99.99,,,0.00,weatherlink.com 1.10,2013-03-04 15:23:00,
2013-03-04 15:38:00,-999.0,-99.9,29.74,North,-999,-999.0,-999.0,-999,-99.99,,,0.00,weatherlink.com 1.10,2013-03-04 15:38:00,
2013-03-04 15:53:00,-999.0,-99.9,29.73,North,-999,-999.0,-999.0,-999,-99.99,,,0.00,weatherlink.com 1.10,2013-03-04 15:53:00,
2013-03-04 16:08:00,-999.0,-99.9,29.73,North,-999,-999.0,-999.0,-999,-99.99,,,0.00,weatherlink.com 1.10,2013-03-04 16:08:00,
2013-03-04 16:23:00,-999.0,-99.9,29.73,North,-999,-999.0,-999.0,-999,-99.99,,,0.00,weatherlink.com 1.10,2013-03-04 16:23:00,
2013-03-04 16:39:00,-999.0,-99.9,29.73,North,-999,-999.0,-999.0,-999,-99.99,,,0.00,weatherlink.com 1.10,2013-03-04 16:39:00,
2013-03-04 16:54:00,-999.0,-99.9,29.72,North,-999,-999.0,-999.0,-999,-99.99,,,0.00,weatherlink.com 1.10,2013-03-04 16:54:00,
2013-03-04 17:09:00,-999.0,-99.9,29.73,North,-999,-999.0,-999.0,-999,-99.99,,,0.00,weatherlink.com 1.10,2013-03-04 17:09:00,
2013-03-04 17:24:00,-999.0,-99.9,29.73,North,-999,-999.0,-999.0,-999,-99.99,,,0.00,weatherlink.com 1.10,2013-03-04 17:24:00,
2013-03-04 17:39:00,-999.0,-99.9,29.73,North,-999,-999.0,-999.0,-999,-99.99,,,0.00,weatherlink.com 1.10,2013-03-04 17:39:00,
2013-03-04 17:54:00,-999.0,-99.9,29.72,North,-999,-999.0,-999.0,-999,-99.99,,,0.00,weatherlink.com 1.10,2013-03-04 17:54:00,
2013-03-04 18:09:00,-999.0,-99.9,29.73,North,-999,-999.0,-999.0,-999,-99.99,,,0.00,weatherlink.com 1.10,2013-03-04 18:09:00,
2013-03-04 18:24:00,-999.0,-99.9,29.73,North,-999,-999.0,-999.0,-999,-99.99,,,0.00,weatherlink.com 1.10,2013-03-04 18:24:00,
2013-03-04 18:39:00,-999.0,-99.9,29.73,North,-999,-999.0,-999.0,-999,-99.99,,,0.00,weatherlink.com 1.10,2013-03-04 18:39:00,
2013-03-04 18:54:00,-999.0,-99.9,29.72,North,-999,-999.0,-999.0,-999,-99.99,,,0.00,weatherlink.com 1.10,2013-03-04 18:54:00,
2013-03-04 19:09:00,-999.0,-99.9,29.72,North,-999,-999.0,-999.0,-999,-99.99,,,0.00,weatherlink.com 1.10,2013-03-04 19:09:00,
2013-03-04 19:24:00,-999.0,-99.9,29.73,North,-999,-999.0,-999.0,-999,-99.99,,,0.00,weatherlink.com 1.10,2013-03-04 19:24:00,
2013-03-04 19:39:00,-999.0,-99.9,29.73,North,-999,-999.0,-999.0,-999,-99.99,,,0.00,weatherlink.com 1.10,2013-03-04 19:39:00,
2013-03-04 19:55:00,-999.0,-99.9,29.71,North,-999,-999.0,-999.0,-999,-99.99,,,0.00,weatherlink.com 1.10,2013-03-04 19:55:00,
2013-03-04 20:10:00,-999.0,-99.9,29.71,North,-999,-999.0,-999.0,-999,-99.99,,,0.00,weatherlink.com 1.10,2013-03-04 20:10:00,
2013-03-04 20:25:00,-999.0,-99.9,29.72,North,-999,-999.0,-999.0,-999,-99.99,,,0.00,weatherlink.com 1.10,2013-03-04 20:25:00,
2013-03-04 20:41:00,-999.0,-99.9,29.71,North,-999,-999.0,-999.0,-999,-99.99,,,0.00,weatherlink.com 1.10,2013-03-04 20:41:00,
2013-03-04 20:55:00,-999.0,-99.9,29.71,North,-999,-999.0,-999.0,-999,-99.99,,,0.00,weatherlink.com 1.10,2013-03-04 20:55:00,
2013-03-04 21:10:00,-999.0,-99.9,29.70,North,-999,-999.0,-999.0,-999,-99.99,,,0.00,weatherlink.com 1.10,2013-03-04 21:10:00,
2013-03-04 21:25:00,-999.0,-99.9,29.70,North,-999,-999.0,-999.0,-999,-99.99,,,0.00,weatherlink.com 1.10,2013-03-04 21:25:00,
2013-03-04 21:40:00,-999.0,-99.9,29.70,North,-999,-999.0,-999.0,-999,-99.99,,,0.00,weatherlink.com 1.10,2013-03-04 21:40:00,
2013-03-04 21:55:00,-999.0,-99.9,29.69,North,-999,-999.0,-999.0,-999,-99.99,,,0.00,weatherlink.com 1.10,2013-03-04 21:55:00,
2013-03-04 22:10:00,-999.0,-99.9,29.69,North,-999,-999.0,-999.0,-999,-99.99,,,0.00,weatherlink.com 1.10,2013-03-04 22:10:00,
2013-03-04 22:25:00,-999.0,-99.9,29.68,North,-999,-999.0,-999.0,-999,-99.99,,,0.00,weatherlink.com 1.10,2013-03-04 22:25:00,
2013-03-04 22:40:00,-999.0,-99.9,29.68,North,-999,-999.0,-999.0,-999,-99.99,,,0.00,weatherlink.com 1.10,2013-03-04 22:40:00,
2013-03-04 22:55:00,-999.0,-99.9,29.68,North,-999,-999.0,-999.0,-999,-99.99,,,0.00,weatherlink.com 1.10,2013-03-04 22:55:00,
2013-03-04 23:10:00,-999.0,-99.9,29.68,North,-999,-999.0,-999.0,-999,-99.99,,,0.00,weatherlink.com 1.10,2013-03-04 23:10:00,
2013-03-04 23:26:00,-999.0,-99.9,29.68,North,-999,-999.0,-999.0,-999,-99.99,,,0.00,weatherlink.com 1.10,2013-03-04 23:26:00,
2013-03-04 23:41:00,-999.0,-99.9,29.68,North,-999,-999.0,-999.0,-999,-99.99,,,0.00,weatherlink.com 1.10,2013-03-04 23:41:00,
2013-03-04 23:56:00,-999.0,-99.9,29.67,North,-999,-999.0,-999.0,-999,-99.99,,,0.00,weatherlink.com 1.10,2013-03-04 23:56:00,